createdAt,value
2022-08-18T00:04:52.803Z,5.25
2022-08-18T00:09:58.912Z,5.68
2022-08-18T00:15:05.048Z,6.00
2022-08-18T00:20:14.606Z,6.28
2022-08-18T00:25:19.199Z,5.55
2022-08-18T00:30:23.470Z,6.15
2022-08-18T00:35:28.954Z,4.53
2022-08-18T00:40:37.776Z,4.97
2022-08-18T00:45:43.314Z,3.78
2022-08-18T00:50:47.950Z,4.53
2022-08-18T00:55:53.927Z,5.30
2022-08-18T01:00:58.754Z,5.63
2022-08-18T01:06:03.544Z,4.07
2022-08-18T01:11:06.445Z,4.30
2022-08-18T01:16:28.386Z,4.40
2022-08-18T01:21:49.899Z,3.92
2022-08-18T01:26:54.066Z,3.50
2022-08-18T01:31:56.967Z,4.30
2022-08-18T01:37:00.151Z,5.30
2022-08-18T01:42:04.886Z,4.65
2022-08-18T01:47:07.592Z,2.47
2022-08-18T01:52:11.028Z,3.05
2022-08-18T01:57:15.498Z,4.60
2022-08-18T02:02:20.352Z,4.65
2022-08-18T02:07:23.217Z,3.80
2022-08-18T02:12:38.369Z,4.78
2022-08-18T02:17:42.110Z,4.93
2022-08-18T02:22:45.647Z,4.00
2022-08-18T02:27:49.776Z,4.78
2022-08-18T02:32:52.643Z,3.00
2022-08-18T02:37:55.265Z,4.40
2022-08-18T02:42:59.381Z,2.40
2022-08-18T02:48:02.073Z,3.90
2022-08-18T02:53:05.328Z,4.10
2022-08-18T02:58:09.337Z,4.65
2022-08-18T03:03:13.395Z,3.95
2022-08-18T03:08:16.098Z,4.15
2022-08-18T03:13:20.796Z,3.63
2022-08-18T03:18:23.752Z,4.63
2022-08-18T03:23:30.165Z,3.42
2022-08-18T03:28:34.906Z,3.90
2022-08-18T03:33:37.909Z,3.95
2022-08-18T03:38:41.094Z,3.60
2022-08-18T03:43:51.142Z,4.10
2022-08-18T03:48:54.512Z,4.00
2022-08-18T03:54:00.507Z,4.15
2022-08-18T03:59:05.898Z,4.15
2022-08-18T04:04:10.804Z,4.15
2022-08-18T04:09:14.550Z,4.22
2022-08-18T04:14:20.097Z,4.43
2022-08-18T04:19:27.296Z,4.32
2022-08-18T04:24:32.143Z,4.45
2022-08-18T04:29:37.392Z,4.60
2022-08-18T04:34:42.702Z,4.55
2022-08-18T04:39:45.803Z,4.70
2022-08-18T04:44:51.480Z,4.75
2022-08-18T04:49:54.761Z,4.90
2022-08-18T04:54:57.528Z,4.75
2022-08-18T05:05:04.959Z,4.78
2022-08-18T05:10:10.119Z,4.40
2022-08-18T05:15:17.742Z,4.97
2022-08-18T05:20:23.360Z,4.93
2022-08-18T05:25:26.047Z,4.45
2022-08-18T05:30:29.602Z,4.65
2022-08-18T05:35:36.141Z,3.85
2022-08-18T05:40:38.785Z,4.50
2022-08-18T05:45:42.724Z,5.93
2022-08-18T05:50:47.113Z,4.05
2022-08-18T05:56:14.394Z,4.00
2022-08-18T06:01:18.981Z,4.10
2022-08-18T06:06:25.688Z,3.83
2022-08-18T06:11:28.338Z,3.53
2022-08-18T06:16:39.970Z,4.55
2022-08-18T06:21:48.686Z,4.18
2022-08-18T06:26:53.933Z,4.43
2022-08-18T06:32:05.477Z,4.30
2022-08-18T06:37:12.181Z,4.00
2022-08-18T06:42:17.609Z,4.65
2022-08-18T06:47:26.259Z,4.32
2022-08-18T06:52:32.260Z,4.30
2022-08-18T06:57:36.705Z,4.90
2022-08-18T07:02:46.848Z,4.85
2022-08-18T07:08:04.748Z,4.70
2022-08-18T07:13:18.585Z,4.93
2022-08-18T07:18:25.855Z,4.63
2022-08-18T07:23:32.074Z,8.50
2022-08-18T07:28:42.123Z,4.75
2022-08-18T07:33:47.330Z,5.03
2022-08-18T07:38:54.520Z,4.90
2022-08-18T07:44:01.144Z,5.05
2022-08-18T07:49:05.378Z,4.78
2022-08-18T07:54:31.163Z,7.35
2022-08-18T07:59:40.123Z,5.55
2022-08-18T08:04:47.257Z,7.72
2022-08-18T08:09:58.022Z,6.60
2022-08-18T08:15:05.140Z,7.18
2022-08-18T08:20:15.368Z,9.18
2022-08-18T08:25:45.263Z,5.82
2022-08-18T08:30:47.591Z,6.28
2022-08-18T08:35:54.880Z,5.85
2022-08-18T08:41:03.354Z,5.80
2022-08-18T08:46:10.356Z,5.97
2022-08-18T08:51:23.377Z,5.43
2022-08-18T08:56:34.542Z,5.82
2022-08-18T09:01:40.018Z,6.10
2022-08-18T09:06:46.808Z,5.35
2022-08-18T09:12:04.766Z,6.10
2022-08-18T09:17:17.198Z,6.22
2022-08-18T09:22:23.176Z,6.10
2022-08-18T09:27:48.663Z,6.20
2022-08-18T09:33:02.340Z,5.88
2022-08-18T09:38:41.290Z,6.13
2022-08-18T09:43:54.913Z,6.00
2022-08-18T09:49:26.465Z,6.43
2022-08-18T09:54:31.004Z,5.72
2022-08-18T09:59:54.499Z,6.38
2022-08-18T10:05:23.796Z,5.85
2022-08-18T10:10:58.965Z,6.10
2022-08-18T10:16:10.272Z,7.50
2022-08-18T10:21:24.498Z,6.32
2022-08-18T10:26:54.716Z,5.97
2022-08-18T10:32:14.108Z,5.80
2022-08-18T10:37:19.801Z,6.05
2022-08-18T10:42:31.473Z,6.65
2022-08-18T10:47:34.508Z,5.72
2022-08-18T10:53:17.050Z,6.32
2022-08-18T11:04:01.154Z,7.00
2022-08-18T11:09:25.669Z,6.03
2022-08-18T11:14:42.484Z,6.50
2022-08-18T11:19:46.554Z,6.10
2022-08-18T11:24:55.299Z,6.75
2022-08-18T11:30:00.741Z,5.72
2022-08-18T11:35:05.672Z,6.10
2022-08-18T11:45:54.154Z,6.07
2022-08-18T11:51:02.205Z,5.88
2022-08-18T11:56:13.510Z,6.43
2022-08-18T12:01:40.864Z,5.95
2022-08-18T12:06:55.154Z,5.68
2022-08-18T12:12:00.679Z,6.15
2022-08-18T12:17:08.624Z,6.20
2022-08-18T12:22:15.574Z,6.30
2022-08-18T12:27:22.472Z,5.88
2022-08-18T12:32:41.381Z,5.63
2022-08-18T12:38:12.865Z,5.78
2022-08-18T12:43:13.606Z,5.65
2022-08-18T12:48:16.238Z,6.20
2022-08-18T12:53:18.869Z,6.50
2022-08-18T13:09:35.222Z,5.38
2022-08-18T13:14:47.375Z,6.07
2022-08-18T13:19:50.229Z,5.85
2022-08-18T13:24:53.012Z,6.32
2022-08-18T13:29:57.139Z,5.82
2022-08-18T13:35:00.060Z,5.95
2022-08-18T13:40:06.470Z,6.00
2022-08-18T13:45:24.795Z,6.18
2022-08-18T13:50:29.665Z,5.28
2022-08-18T13:55:32.821Z,6.38
2022-08-18T14:00:37.207Z,6.03
2022-08-18T14:05:51.733Z,6.00
2022-08-18T14:10:57.084Z,6.15
2022-08-18T14:16:01.299Z,6.75
2022-08-18T14:21:23.558Z,6.03
2022-08-18T14:26:43.578Z,7.07
2022-08-18T14:31:49.056Z,6.70
2022-08-18T14:36:55.481Z,6.35
2022-08-18T14:41:59.654Z,6.32
2022-08-18T14:47:07.336Z,6.80
2022-08-18T14:52:14.466Z,6.45
2022-08-18T14:57:17.545Z,6.30
2022-08-18T15:02:22.000Z,5.90
2022-08-18T15:07:25.082Z,6.65
2022-08-18T15:12:28.901Z,5.68
2022-08-18T15:17:37.839Z,5.72
2022-08-18T15:22:58.820Z,6.07
2022-08-18T15:28:02.103Z,6.47
2022-08-18T15:33:07.711Z,6.70
2022-08-18T15:38:12.597Z,5.85
2022-08-18T15:43:17.996Z,7.18
2022-08-18T15:48:23.632Z,6.57
2022-08-18T15:53:29.613Z,6.60
2022-08-18T15:58:32.879Z,7.95
2022-08-18T16:03:37.111Z,10.90
2022-08-18T16:08:42.068Z,6.75
2022-08-18T16:13:44.715Z,8.48
2022-08-18T16:18:48.961Z,6.88
2022-08-18T16:23:52.596Z,8.15
2022-08-18T16:28:56.248Z,8.32
2022-08-18T16:34:01.003Z,7.80
2022-08-18T16:39:03.919Z,6.55
2022-08-18T16:44:09.327Z,9.20
2022-08-18T16:49:13.912Z,8.57
2022-08-18T16:54:16.571Z,9.38
2022-08-18T17:04:41.404Z,7.78
2022-08-18T17:09:44.100Z,8.27
2022-08-18T17:19:53.874Z,6.75
2022-08-18T17:24:59.660Z,7.57
2022-08-18T17:30:05.483Z,7.18
2022-08-18T17:35:14.183Z,3.58
2022-08-18T17:40:18.437Z,2.90
2022-08-18T17:45:25.145Z,3.53
2022-08-18T17:50:48.799Z,7.07
2022-08-18T17:55:52.694Z,7.97
2022-08-18T18:00:55.526Z,8.82
2022-08-18T18:06:03.908Z,6.97
2022-08-18T18:11:11.746Z,8.25
2022-08-18T18:16:25.383Z,4.35
2022-08-18T18:21:55.358Z,3.60
2022-08-18T18:26:53.413Z,2.00
2022-08-18T18:31:58.658Z,1.45
2022-08-18T18:37:03.323Z,1.50
2022-08-18T18:42:17.862Z,2.17
2022-08-18T18:47:30.055Z,1.90
2022-08-18T18:52:38.077Z,1.25
2022-08-18T18:57:43.010Z,2.70
2022-08-18T19:02:50.638Z,1.70
2022-08-18T19:08:06.597Z,1.88
2022-08-18T19:13:30.368Z,2.42
2022-08-18T19:18:39.923Z,2.15
2022-08-18T19:23:45.467Z,2.00
2022-08-18T19:29:11.942Z,2.60
2022-08-18T19:34:14.071Z,1.90
2022-08-18T19:39:24.646Z,1.85
2022-08-18T19:44:33.658Z,1.20
2022-08-18T19:49:39.539Z,1.70
2022-08-18T19:54:54.283Z,1.50
2022-08-18T20:00:10.714Z,2.28
2022-08-18T20:05:20.519Z,1.85
2022-08-18T20:10:32.482Z,1.90
2022-08-18T20:15:35.267Z,2.20
2022-08-18T20:20:39.080Z,2.70
2022-08-18T20:25:47.065Z,4.03
2022-08-18T20:30:53.778Z,3.92
2022-08-18T20:36:05.243Z,5.85
2022-08-18T20:41:41.271Z,6.40
2022-08-18T20:46:51.131Z,4.88
2022-08-18T20:51:57.804Z,5.38
2022-08-18T20:57:03.238Z,7.05
2022-08-18T21:02:08.654Z,7.13
2022-08-18T21:07:17.049Z,8.73
2022-08-18T21:12:24.177Z,8.40
2022-08-18T21:17:30.455Z,6.95
2022-08-18T21:22:33.845Z,8.35
2022-08-18T21:37:55.648Z,8.80
2022-08-18T21:42:59.598Z,5.38
2022-08-18T21:48:05.809Z,10.15
2022-08-18T21:53:19.044Z,6.88
2022-08-18T21:58:33.620Z,9.10
2022-08-18T22:03:37.686Z,9.15
2022-08-18T22:08:49.800Z,8.70
2022-08-18T22:14:03.335Z,9.00
2022-08-18T22:19:07.719Z,7.40
2022-08-18T22:24:20.434Z,8.55
2022-08-18T22:29:27.005Z,6.40
2022-08-18T22:34:31.921Z,9.38
2022-08-18T22:39:38.157Z,8.55
2022-08-18T22:44:41.784Z,6.50
2022-08-18T22:49:45.219Z,5.15
2022-08-18T22:59:54.543Z,3.22
2022-08-18T23:05:01.781Z,4.10
2022-08-18T23:10:08.274Z,3.80
2022-08-18T23:15:18.954Z,3.60
2022-08-18T23:20:21.804Z,2.28
2022-08-18T23:25:30.835Z,3.60
2022-08-18T23:30:35.260Z,3.10
2022-08-18T23:35:38.024Z,2.92
2022-08-18T23:40:44.263Z,3.53
2022-08-18T23:45:49.422Z,3.20
2022-08-18T23:50:52.237Z,2.65
2022-08-18T23:55:55.040Z,2.92
